sensor_id;sensor_type;location;lat;lon;timestamp;P1;durP1;ratioP1;P2;durP2;ratioP2
20144;SDS011;10233;50.814;6.590;2023-07-09T00:00:47;7.65;;;4.22;;
20144;SDS011;10233;50.814;6.590;2023-07-09T00:01:49;10.60;;;4.93;;
20144;SDS011;10233;50.814;6.590;2023-07-09T00:02:50;9.43;;;4.60;;
20144;SDS011;10233;50.814;6.590;2023-07-09T00:03:50;7.20;;;4.38;;
20144;SDS011;10233;50.814;6.590;2023-07-09T00:04:51;8.63;;;4.65;;
20144;SDS011;10233;50.814;6.590;2023-07-09T00:05:52;9.00;;;4.20;;
20144;SDS011;10233;50.814;6.590;2023-07-09T00:06:52;6.65;;;4.38;;
20144;SDS011;10233;50.814;6.590;2023-07-09T00:07:53;7.22;;;4.40;;
20144;SDS011;10233;50.814;6.590;2023-07-09T00:08:53;9.37;;;4.00;;
20144;SDS011;10233;50.814;6.590;2023-07-09T00:09:54;6.93;;;4.47;;
20144;SDS011;10233;50.814;6.590;2023-07-09T00:10:55;7.55;;;4.40;;
20144;SDS011;10233;50.814;6.590;2023-07-09T00:11:56;7.35;;;4.45;;
20144;SDS011;10233;50.814;6.590;2023-07-09T00:12:57;7.65;;;4.47;;
20144;SDS011;10233;50.814;6.590;2023-07-09T00:13:58;9.45;;;4.63;;
20144;SDS011;10233;50.814;6.590;2023-07-09T00:14:58;8.73;;;4.93;;
20144;SDS011;10233;50.814;6.590;2023-07-09T00:15:59;9.38;;;4.28;;
20144;SDS011;10233;50.814;6.590;2023-07-09T00:17:01;10.32;;;4.88;;
20144;SDS011;10233;50.814;6.590;2023-07-09T00:18:02;8.23;;;4.68;;
20144;SDS011;10233;50.814;6.590;2023-07-09T00:19:03;7.93;;;4.67;;
20144;SDS011;10233;50.814;6.590;2023-07-09T00:20:05;8.07;;;4.50;;
20144;SDS011;10233;50.814;6.590;2023-07-09T00:21:11;9.50;;;4.63;;
20144;SDS011;10233;50.814;6.590;2023-07-09T00:22:16;7.03;;;4.45;;
20144;SDS011;10233;50.814;6.590;2023-07-09T00:23:18;8.23;;;4.43;;
20144;SDS011;10233;50.814;6.590;2023-07-09T00:24:19;7.97;;;4.70;;
20144;SDS011;10233;50.814;6.590;2023-07-09T00:25:20;7.63;;;4.50;;
20144;SDS011;10233;50.814;6.590;2023-07-09T00:26:21;8.63;;;4.43;;
20144;SDS011;10233;50.814;6.590;2023-07-09T00:27:24;8.85;;;4.32;;
20144;SDS011;10233;50.814;6.590;2023-07-09T00:28:27;7.65;;;4.50;;
20144;SDS011;10233;50.814;6.590;2023-07-09T00:29:28;11.63;;;4.77;;
20144;SDS011;10233;50.814;6.590;2023-07-09T00:30:28;13.60;;;4.93;;
20144;SDS011;10233;50.814;6.590;2023-07-09T00:31:30;8.40;;;4.30;;
20144;SDS011;10233;50.814;6.590;2023-07-09T00:32:30;9.85;;;4.72;;
20144;SDS011;10233;50.814;6.590;2023-07-09T00:33:31;7.97;;;4.53;;
20144;SDS011;10233;50.814;6.590;2023-07-09T00:34:32;7.93;;;4.45;;
20144;SDS011;10233;50.814;6.590;2023-07-09T00:35:32;11.63;;;4.90;;
20144;SDS011;10233;50.814;6.590;2023-07-09T00:36:33;9.60;;;4.60;;
20144;SDS011;10233;50.814;6.590;2023-07-09T00:37:34;7.95;;;4.90;;
20144;SDS011;10233;50.814;6.590;2023-07-09T00:38:35;8.07;;;4.75;;
20144;SDS011;10233;50.814;6.590;2023-07-09T00:39:39;11.38;;;4.68;;
20144;SDS011;10233;50.814;6.590;2023-07-09T00:40:47;9.90;;;4.63;;
20144;SDS011;10233;50.814;6.590;2023-07-09T00:41:57;8.90;;;5.25;;
20144;SDS011;10233;50.814;6.590;2023-07-09T00:42:59;7.83;;;4.97;;
20144;SDS011;10233;50.814;6.590;2023-07-09T00:44:16;8.05;;;4.90;;
20144;SDS011;10233;50.814;6.590;2023-07-09T00:45:21;7.80;;;5.18;;
20144;SDS011;10233;50.814;6.590;2023-07-09T00:47:28;8.38;;;5.07;;
20144;SDS011;10233;50.814;6.590;2023-07-09T00:48:29;10.73;;;5.10;;
20144;SDS011;10233;50.814;6.590;2023-07-09T00:49:36;9.13;;;5.55;;
20144;SDS011;10233;50.814;6.590;2023-07-09T00:50:48;9.52;;;5.20;;
20144;SDS011;10233;50.814;6.590;2023-07-09T00:51:52;9.05;;;5.20;;
20144;SDS011;10233;50.814;6.590;2023-07-09T00:52:58;9.40;;;5.40;;
20144;SDS011;10233;50.814;6.590;2023-07-09T00:54:19;9.35;;;4.88;;
20144;SDS011;10233;50.814;6.590;2023-07-09T00:55:30;9.40;;;5.47;;
20144;SDS011;10233;50.814;6.590;2023-07-09T00:56:38;11.07;;;5.47;;
20144;SDS011;10233;50.814;6.590;2023-07-09T00:57:42;10.02;;;5.05;;
20144;SDS011;10233;50.814;6.590;2023-07-09T00:58:56;9.88;;;5.10;;
20144;SDS011;10233;50.814;6.590;2023-07-09T01:00:03;8.88;;;5.28;;
20144;SDS011;10233;50.814;6.590;2023-07-09T01:01:11;9.40;;;5.28;;
20144;SDS011;10233;50.814;6.590;2023-07-09T01:02:18;8.75;;;5.03;;
20144;SDS011;10233;50.814;6.590;2023-07-09T01:04:34;9.63;;;5.33;;
20144;SDS011;10233;50.814;6.590;2023-07-09T01:05:37;9.57;;;5.28;;
20144;SDS011;10233;50.814;6.590;2023-07-09T01:06:45;9.25;;;5.18;;
20144;SDS011;10233;50.814;6.590;2023-07-09T01:07:50;9.70;;;5.40;;
20144;SDS011;10233;50.814;6.590;2023-07-09T01:08:50;9.63;;;5.03;;
20144;SDS011;10233;50.814;6.590;2023-07-09T01:09:55;9.88;;;5.50;;
20144;SDS011;10233;50.814;6.590;2023-07-09T01:10:55;9.93;;;5.33;;
20144;SDS011;10233;50.814;6.590;2023-07-09T01:11:58;11.43;;;5.53;;
20144;SDS011;10233;50.814;6.590;2023-07-09T01:13:01;8.95;;;5.22;;
20144;SDS011;10233;50.814;6.590;2023-07-09T01:14:03;9.90;;;5.15;;
20144;SDS011;10233;50.814;6.590;2023-07-09T01:15:06;8.15;;;4.90;;
20144;SDS011;10233;50.814;6.590;2023-07-09T01:16:07;8.43;;;4.95;;
20144;SDS011;10233;50.814;6.590;2023-07-09T01:17:08;9.20;;;5.10;;
20144;SDS011;10233;50.814;6.590;2023-07-09T01:18:09;11.77;;;5.45;;
20144;SDS011;10233;50.814;6.590;2023-07-09T01:19:10;9.02;;;5.18;;
20144;SDS011;10233;50.814;6.590;2023-07-09T01:20:14;9.27;;;5.15;;
20144;SDS011;10233;50.814;6.590;2023-07-09T01:21:21;9.25;;;5.10;;
20144;SDS011;10233;50.814;6.590;2023-07-09T01:22:21;7.93;;;4.85;;
20144;SDS011;10233;50.814;6.590;2023-07-09T01:23:22;10.65;;;5.20;;
20144;SDS011;10233;50.814;6.590;2023-07-09T01:25:54;10.30;;;5.18;;
20144;SDS011;10233;50.814;6.590;2023-07-09T01:26:55;8.82;;;4.95;;
20144;SDS011;10233;50.814;6.590;2023-07-09T01:27:56;10.53;;;4.73;;
20144;SDS011;10233;50.814;6.590;2023-07-09T01:28:58;9.80;;;4.85;;
20144;SDS011;10233;50.814;6.590;2023-07-09T01:30:00;8.80;;;5.03;;
20144;SDS011;10233;50.814;6.590;2023-07-09T01:31:04;8.50;;;5.07;;
20144;SDS011;10233;50.814;6.590;2023-07-09T01:32:05;8.77;;;5.10;;
20144;SDS011;10233;50.814;6.590;2023-07-09T01:33:06;7.22;;;5.00;;
20144;SDS011;10233;50.814;6.590;2023-07-09T01:34:09;9.73;;;5.72;;
20144;SDS011;10233;50.814;6.590;2023-07-09T01:35:12;9.93;;;5.45;;
20144;SDS011;10233;50.814;6.590;2023-07-09T01:36:16;10.85;;;5.32;;
20144;SDS011;10233;50.814;6.590;2023-07-09T01:37:23;10.45;;;5.43;;
20144;SDS011;10233;50.814;6.590;2023-07-09T01:38:27;11.70;;;5.50;;
20144;SDS011;10233;50.814;6.590;2023-07-09T01:39:30;10.38;;;5.22;;
20144;SDS011;10233;50.814;6.590;2023-07-09T01:40:32;12.82;;;5.50;;
20144;SDS011;10233;50.814;6.590;2023-07-09T01:41:33;10.48;;;5.10;;
20144;SDS011;10233;50.814;6.590;2023-07-09T01:42:34;9.93;;;5.17;;
20144;SDS011;10233;50.814;6.590;2023-07-09T01:43:40;10.05;;;5.20;;
20144;SDS011;10233;50.814;6.590;2023-07-09T01:44:44;8.40;;;5.30;;
20144;SDS011;10233;50.814;6.590;2023-07-09T01:45:48;8.30;;;5.03;;
20144;SDS011;10233;50.814;6.590;2023-07-09T01:46:50;9.45;;;4.78;;
20144;SDS011;10233;50.814;6.590;2023-07-09T01:47:51;8.70;;;5.40;;
20144;SDS011;10233;50.814;6.590;2023-07-09T01:48:54;8.90;;;5.25;;
20144;SDS011;10233;50.814;6.590;2023-07-09T01:49:55;9.13;;;5.20;;
20144;SDS011;10233;50.814;6.590;2023-07-09T01:51:01;10.25;;;5.63;;
20144;SDS011;10233;50.814;6.590;2023-07-09T01:52:02;9.27;;;5.50;;
20144;SDS011;10233;50.814;6.590;2023-07-09T01:53:03;9.52;;;5.20;;
20144;SDS011;10233;50.814;6.590;2023-07-09T01:54:05;8.95;;;5.03;;
20144;SDS011;10233;50.814;6.590;2023-07-09T01:55:06;10.75;;;5.53;;
20144;SDS011;10233;50.814;6.590;2023-07-09T01:56:08;10.50;;;5.75;;
20144;SDS011;10233;50.814;6.590;2023-07-09T01:57:27;8.90;;;5.40;;
20144;SDS011;10233;50.814;6.590;2023-07-09T01:58:33;10.48;;;5.47;;
20144;SDS011;10233;50.814;6.590;2023-07-09T01:59:34;9.13;;;5.15;;
20144;SDS011;10233;50.814;6.590;2023-07-09T02:00:41;10.55;;;5.63;;
20144;SDS011;10233;50.814;6.590;2023-07-09T02:01:42;9.02;;;5.50;;
20144;SDS011;10233;50.814;6.590;2023-07-09T02:02:43;8.03;;;5.33;;
20144;SDS011;10233;50.814;6.590;2023-07-09T02:03:46;8.40;;;5.53;;
20144;SDS011;10233;50.814;6.590;2023-07-09T02:04:47;10.20;;;5.00;;
20144;SDS011;10233;50.814;6.590;2023-07-09T02:05:48;8.98;;;5.63;;
20144;SDS011;10233;50.814;6.590;2023-07-09T02:06:51;10.15;;;5.25;;
20144;SDS011;10233;50.814;6.590;2023-07-09T02:07:52;8.83;;;5.00;;
20144;SDS011;10233;50.814;6.590;2023-07-09T02:08:56;10.80;;;5.28;;
20144;SDS011;10233;50.814;6.590;2023-07-09T02:09:57;8.27;;;5.20;;
20144;SDS011;10233;50.814;6.590;2023-07-09T02:10:59;9.07;;;5.20;;
20144;SDS011;10233;50.814;6.590;2023-07-09T02:11:59;8.87;;;5.27;;
20144;SDS011;10233;50.814;6.590;2023-07-09T02:13:03;11.00;;;5.10;;
20144;SDS011;10233;50.814;6.590;2023-07-09T02:14:04;9.67;;;5.17;;
20144;SDS011;10233;50.814;6.590;2023-07-09T02:15:04;8.85;;;5.10;;
20144;SDS011;10233;50.814;6.590;2023-07-09T02:16:06;10.15;;;5.43;;
20144;SDS011;10233;50.814;6.590;2023-07-09T02:17:06;9.50;;;5.50;;
20144;SDS011;10233;50.814;6.590;2023-07-09T02:18:08;8.93;;;5.13;;
20144;SDS011;10233;50.814;6.590;2023-07-09T02:19:09;9.95;;;5.30;;
20144;SDS011;10233;50.814;6.590;2023-07-09T02:20:10;9.40;;;5.23;;
20144;SDS011;10233;50.814;6.590;2023-07-09T02:21:11;8.52;;;5.35;;
20144;SDS011;10233;50.814;6.590;2023-07-09T02:22:13;9.52;;;5.25;;
20144;SDS011;10233;50.814;6.590;2023-07-09T02:23:13;8.80;;;5.43;;
20144;SDS011;10233;50.814;6.590;2023-07-09T02:24:13;9.83;;;5.77;;
20144;SDS011;10233;50.814;6.590;2023-07-09T02:25:15;10.65;;;5.07;;
20144;SDS011;10233;50.814;6.590;2023-07-09T02:26:16;8.97;;;5.37;;
20144;SDS011;10233;50.814;6.590;2023-07-09T02:27:17;10.57;;;5.40;;
20144;SDS011;10233;50.814;6.590;2023-07-09T02:28:17;10.17;;;4.90;;
20144;SDS011;10233;50.814;6.590;2023-07-09T02:29:18;9.52;;;5.55;;
20144;SDS011;10233;50.814;6.590;2023-07-09T02:30:18;11.17;;;5.67;;
20144;SDS011;10233;50.814;6.590;2023-07-09T02:31:19;10.70;;;5.10;;
20144;SDS011;10233;50.814;6.590;2023-07-09T02:32:21;10.67;;;5.20;;
20144;SDS011;10233;50.814;6.590;2023-07-09T02:33:23;7.75;;;4.72;;
20144;SDS011;10233;50.814;6.590;2023-07-09T02:34:27;9.90;;;5.22;;
20144;SDS011;10233;50.814;6.590;2023-07-09T02:35:28;9.95;;;5.32;;
20144;SDS011;10233;50.814;6.590;2023-07-09T02:36:28;8.17;;;5.03;;
20144;SDS011;10233;50.814;6.590;2023-07-09T02:37:29;10.13;;;5.68;;
20144;SDS011;10233;50.814;6.590;2023-07-09T02:38:30;8.30;;;5.32;;
20144;SDS011;10233;50.814;6.590;2023-07-09T02:39:31;11.13;;;5.47;;
20144;SDS011;10233;50.814;6.590;2023-07-09T02:40:31;11.43;;;5.63;;
20144;SDS011;10233;50.814;6.590;2023-07-09T02:41:34;8.82;;;5.63;;
20144;SDS011;10233;50.814;6.590;2023-07-09T02:42:35;10.05;;;4.95;;
20144;SDS011;10233;50.814;6.590;2023-07-09T02:43:35;12.85;;;5.72;;
20144;SDS011;10233;50.814;6.590;2023-07-09T02:44:36;9.33;;;5.37;;
20144;SDS011;10233;50.814;6.590;2023-07-09T02:45:37;8.93;;;5.47;;
20144;SDS011;10233;50.814;6.590;2023-07-09T02:46:38;8.88;;;5.35;;
20144;SDS011;10233;50.814;6.590;2023-07-09T02:47:39;10.20;;;5.35;;
20144;SDS011;10233;50.814;6.590;2023-07-09T02:48:41;8.82;;;5.65;;
20144;SDS011;10233;50.814;6.590;2023-07-09T02:49:41;12.15;;;5.38;;
20144;SDS011;10233;50.814;6.590;2023-07-09T02:50:42;11.37;;;5.50;;
20144;SDS011;10233;50.814;6.590;2023-07-09T02:51:42;10.10;;;5.20;;
20144;SDS011;10233;50.814;6.590;2023-07-09T02:52:43;10.43;;;5.43;;
20144;SDS011;10233;50.814;6.590;2023-07-09T02:53:44;10.97;;;5.80;;
20144;SDS011;10233;50.814;6.590;2023-07-09T02:54:45;9.85;;;5.38;;
20144;SDS011;10233;50.814;6.590;2023-07-09T02:55:45;9.23;;;5.80;;
20144;SDS011;10233;50.814;6.590;2023-07-09T02:56:46;10.05;;;5.57;;
20144;SDS011;10233;50.814;6.590;2023-07-09T02:57:46;8.80;;;5.10;;
20144;SDS011;10233;50.814;6.590;2023-07-09T02:58:47;9.23;;;5.60;;
20144;SDS011;10233;50.814;6.590;2023-07-09T02:59:47;11.57;;;5.47;;
20144;SDS011;10233;50.814;6.590;2023-07-09T03:00:48;9.87;;;5.23;;
20144;SDS011;10233;50.814;6.590;2023-07-09T03:01:53;10.77;;;5.40;;
20144;SDS011;10233;50.814;6.590;2023-07-09T03:02:54;10.93;;;5.18;;
20144;SDS011;10233;50.814;6.590;2023-07-09T03:03:54;11.27;;;5.80;;
20144;SDS011;10233;50.814;6.590;2023-07-09T03:04:55;10.77;;;5.60;;
20144;SDS011;10233;50.814;6.590;2023-07-09T03:05:56;10.87;;;5.67;;
20144;SDS011;10233;50.814;6.590;2023-07-09T03:06:56;11.07;;;6.13;;
20144;SDS011;10233;50.814;6.590;2023-07-09T03:07:57;12.65;;;5.47;;
20144;SDS011;10233;50.814;6.590;2023-07-09T03:08:58;8.93;;;5.30;;
20144;SDS011;10233;50.814;6.590;2023-07-09T03:10:00;8.10;;;5.50;;
20144;SDS011;10233;50.814;6.590;2023-07-09T03:11:08;12.15;;;5.13;;
20144;SDS011;10233;50.814;6.590;2023-07-09T03:12:10;11.00;;;5.30;;
20144;SDS011;10233;50.814;6.590;2023-07-09T03:13:10;10.70;;;5.47;;
20144;SDS011;10233;50.814;6.590;2023-07-09T03:14:11;8.87;;;5.33;;
20144;SDS011;10233;50.814;6.590;2023-07-09T03:15:11;9.25;;;5.50;;
20144;SDS011;10233;50.814;6.590;2023-07-09T03:16:12;10.30;;;5.23;;
20144;SDS011;10233;50.814;6.590;2023-07-09T03:17:13;9.52;;;5.95;;
20144;SDS011;10233;50.814;6.590;2023-07-09T03:18:13;10.68;;;5.55;;
20144;SDS011;10233;50.814;6.590;2023-07-09T03:19:14;11.13;;;5.67;;
20144;SDS011;10233;50.814;6.590;2023-07-09T03:20:14;8.63;;;5.63;;
20144;SDS011;10233;50.814;6.590;2023-07-09T03:21:15;9.82;;;5.93;;
20144;SDS011;10233;50.814;6.590;2023-07-09T03:22:15;7.73;;;5.23;;
20144;SDS011;10233;50.814;6.590;2023-07-09T03:23:16;9.65;;;5.50;;
20144;SDS011;10233;50.814;6.590;2023-07-09T03:24:17;11.88;;;5.65;;
20144;SDS011;10233;50.814;6.590;2023-07-09T03:25:18;9.57;;;5.63;;
20144;SDS011;10233;50.814;6.590;2023-07-09T03:26:19;11.23;;;5.60;;
20144;SDS011;10233;50.814;6.590;2023-07-09T03:27:20;8.85;;;5.18;;
20144;SDS011;10233;50.814;6.590;2023-07-09T03:28:20;9.93;;;5.30;;
20144;SDS011;10233;50.814;6.590;2023-07-09T03:29:21;9.20;;;5.32;;
20144;SDS011;10233;50.814;6.590;2023-07-09T03:30:22;9.93;;;5.53;;
20144;SDS011;10233;50.814;6.590;2023-07-09T03:31:22;11.00;;;5.43;;
20144;SDS011;10233;50.814;6.590;2023-07-09T03:32:24;9.93;;;5.70;;
20144;SDS011;10233;50.814;6.590;2023-07-09T03:33:25;11.45;;;5.03;;
20144;SDS011;10233;50.814;6.590;2023-07-09T03:34:25;8.27;;;5.07;;
20144;SDS011;10233;50.814;6.590;2023-07-09T03:35:26;9.30;;;5.30;;
20144;SDS011;10233;50.814;6.590;2023-07-09T03:36:26;11.20;;;5.20;;
20144;SDS011;10233;50.814;6.590;2023-07-09T03:37:27;8.57;;;5.60;;
20144;SDS011;10233;50.814;6.590;2023-07-09T03:38:27;9.27;;;5.50;;
20144;SDS011;10233;50.814;6.590;2023-07-09T03:39:28;10.85;;;5.68;;
20144;SDS011;10233;50.814;6.590;2023-07-09T03:40:28;9.03;;;5.40;;
20144;SDS011;10233;50.814;6.590;2023-07-09T03:41:29;11.25;;;5.57;;
20144;SDS011;10233;50.814;6.590;2023-07-09T03:42:29;8.47;;;5.57;;
20144;SDS011;10233;50.814;6.590;2023-07-09T03:43:30;11.07;;;5.33;;
20144;SDS011;10233;50.814;6.590;2023-07-09T03:44:30;9.40;;;5.13;;
20144;SDS011;10233;50.814;6.590;2023-07-09T03:45:31;9.10;;;5.73;;
20144;SDS011;10233;50.814;6.590;2023-07-09T03:46:32;8.45;;;5.50;;
20144;SDS011;10233;50.814;6.590;2023-07-09T03:47:33;8.13;;;4.93;;
20144;SDS011;10233;50.814;6.590;2023-07-09T03:48:33;7.83;;;5.10;;
20144;SDS011;10233;50.814;6.590;2023-07-09T03:49:34;7.72;;;5.20;;
20144;SDS011;10233;50.814;6.590;2023-07-09T03:50:34;8.00;;;5.10;;
20144;SDS011;10233;50.814;6.590;2023-07-09T03:51:35;8.40;;;5.37;;
20144;SDS011;10233;50.814;6.590;2023-07-09T03:52:35;8.52;;;5.20;;
20144;SDS011;10233;50.814;6.590;2023-07-09T03:53:36;8.93;;;5.20;;
20144;SDS011;10233;50.814;6.590;2023-07-09T03:54:36;9.43;;;5.23;;
20144;SDS011;10233;50.814;6.590;2023-07-09T03:55:36;9.88;;;5.07;;
20144;SDS011;10233;50.814;6.590;2023-07-09T03:56:37;8.77;;;4.77;;
20144;SDS011;10233;50.814;6.590;2023-07-09T03:57:38;10.95;;;5.38;;
20144;SDS011;10233;50.814;6.590;2023-07-09T03:58:38;8.70;;;4.90;;
20144;SDS011;10233;50.814;6.590;2023-07-09T03:59:39;9.63;;;5.07;;
20144;SDS011;10233;50.814;6.590;2023-07-09T04:00:39;7.95;;;5.13;;
20144;SDS011;10233;50.814;6.590;2023-07-09T04:01:40;10.18;;;5.22;;
20144;SDS011;10233;50.814;6.590;2023-07-09T04:02:46;10.10;;;4.90;;
20144;SDS011;10233;50.814;6.590;2023-07-09T04:03:46;7.43;;;4.90;;
20144;SDS011;10233;50.814;6.590;2023-07-09T04:04:47;8.20;;;5.15;;
20144;SDS011;10233;50.814;6.590;2023-07-09T04:05:48;8.80;;;5.33;;
20144;SDS011;10233;50.814;6.590;2023-07-09T04:06:49;10.05;;;5.18;;
20144;SDS011;10233;50.814;6.590;2023-07-09T04:07:49;9.25;;;4.97;;
20144;SDS011;10233;50.814;6.590;2023-07-09T04:08:50;10.50;;;5.37;;
20144;SDS011;10233;50.814;6.590;2023-07-09T04:09:50;8.32;;;5.10;;
20144;SDS011;10233;50.814;6.590;2023-07-09T04:10:53;8.50;;;5.20;;
20144;SDS011;10233;50.814;6.590;2023-07-09T04:11:56;10.07;;;4.80;;
20144;SDS011;10233;50.814;6.590;2023-07-09T04:12:56;10.60;;;5.03;;
20144;SDS011;10233;50.814;6.590;2023-07-09T04:13:57;8.90;;;5.05;;
20144;SDS011;10233;50.814;6.590;2023-07-09T04:14:57;7.83;;;4.80;;
20144;SDS011;10233;50.814;6.590;2023-07-09T04:15:58;9.95;;;5.10;;
20144;SDS011;10233;50.814;6.590;2023-07-09T04:16:58;10.57;;;4.97;;
20144;SDS011;10233;50.814;6.590;2023-07-09T04:17:59;9.00;;;5.00;;
20144;SDS011;10233;50.814;6.590;2023-07-09T04:18:59;9.00;;;4.60;;
20144;SDS011;10233;50.814;6.590;2023-07-09T04:20:00;8.93;;;4.87;;
20144;SDS011;10233;50.814;6.590;2023-07-09T04:21:01;11.40;;;4.90;;
20144;SDS011;10233;50.814;6.590;2023-07-09T04:22:01;8.52;;;5.15;;
20144;SDS011;10233;50.814;6.590;2023-07-09T04:23:02;13.10;;;5.53;;
20144;SDS011;10233;50.814;6.590;2023-07-09T04:24:03;9.13;;;4.57;;
20144;SDS011;10233;50.814;6.590;2023-07-09T04:25:04;9.18;;;5.10;;
20144;SDS011;10233;50.814;6.590;2023-07-09T04:26:07;8.73;;;4.90;;
20144;SDS011;10233;50.814;6.590;2023-07-09T04:27:12;7.68;;;4.75;;
20144;SDS011;10233;50.814;6.590;2023-07-09T04:28:14;10.50;;;4.97;;
20144;SDS011;10233;50.814;6.590;2023-07-09T04:29:15;8.75;;;5.00;;
20144;SDS011;10233;50.814;6.590;2023-07-09T04:30:16;9.23;;;5.17;;
20144;SDS011;10233;50.814;6.590;2023-07-09T04:31:16;9.13;;;4.85;;
20144;SDS011;10233;50.814;6.590;2023-07-09T04:32:16;9.20;;;5.40;;
20144;SDS011;10233;50.814;6.590;2023-07-09T04:33:17;9.63;;;5.00;;
20144;SDS011;10233;50.814;6.590;2023-07-09T04:34:19;8.93;;;4.90;;
20144;SDS011;10233;50.814;6.590;2023-07-09T04:35:19;7.70;;;4.57;;
20144;SDS011;10233;50.814;6.590;2023-07-09T04:36:20;7.82;;;4.70;;
20144;SDS011;10233;50.814;6.590;2023-07-09T04:37:20;12.70;;;5.27;;
20144;SDS011;10233;50.814;6.590;2023-07-09T04:38:21;7.95;;;4.90;;
20144;SDS011;10233;50.814;6.590;2023-07-09T04:39:22;9.07;;;4.72;;
20144;SDS011;10233;50.814;6.590;2023-07-09T04:40:23;8.27;;;4.70;;
20144;SDS011;10233;50.814;6.590;2023-07-09T04:41:23;9.02;;;4.72;;
20144;SDS011;10233;50.814;6.590;2023-07-09T04:42:24;7.55;;;4.65;;
20144;SDS011;10233;50.814;6.590;2023-07-09T04:43:25;7.60;;;4.63;;
20144;SDS011;10233;50.814;6.590;2023-07-09T04:44:25;7.37;;;4.43;;
20144;SDS011;10233;50.814;6.590;2023-07-09T04:45:26;8.38;;;5.05;;
20144;SDS011;10233;50.814;6.590;2023-07-09T04:46:26;8.65;;;5.03;;
20144;SDS011;10233;50.814;6.590;2023-07-09T04:47:27;8.10;;;4.53;;
20144;SDS011;10233;50.814;6.590;2023-07-09T04:48:27;8.52;;;4.68;;
20144;SDS011;10233;50.814;6.590;2023-07-09T04:49:28;8.67;;;5.00;;
20144;SDS011;10233;50.814;6.590;2023-07-09T04:50:28;8.80;;;4.90;;
20144;SDS011;10233;50.814;6.590;2023-07-09T04:51:28;8.83;;;4.97;;
20144;SDS011;10233;50.814;6.590;2023-07-09T04:52:29;9.18;;;4.88;;
20144;SDS011;10233;50.814;6.590;2023-07-09T04:53:30;9.30;;;4.90;;
20144;SDS011;10233;50.814;6.590;2023-07-09T04:54:31;7.22;;;4.80;;
20144;SDS011;10233;50.814;6.590;2023-07-09T04:55:32;10.55;;;5.10;;
20144;SDS011;10233;50.814;6.590;2023-07-09T04:56:33;11.57;;;5.23;;
20144;SDS011;10233;50.814;6.590;2023-07-09T04:57:34;9.50;;;5.00;;
20144;SDS011;10233;50.814;6.590;2023-07-09T04:58:34;8.35;;;4.68;;
20144;SDS011;10233;50.814;6.590;2023-07-09T04:59:35;7.65;;;5.10;;
20144;SDS011;10233;50.814;6.590;2023-07-09T05:00:35;11.93;;;5.23;;
20144;SDS011;10233;50.814;6.590;2023-07-09T05:01:36;9.80;;;5.10;;
20144;SDS011;10233;50.814;6.590;2023-07-09T05:02:36;8.18;;;4.70;;
20144;SDS011;10233;50.814;6.590;2023-07-09T05:03:37;6.33;;;4.50;;
20144;SDS011;10233;50.814;6.590;2023-07-09T05:04:38;7.83;;;4.93;;
20144;SDS011;10233;50.814;6.590;2023-07-09T05:05:43;8.45;;;4.78;;
20144;SDS011;10233;50.814;6.590;2023-07-09T05:06:47;8.70;;;4.83;;
20144;SDS011;10233;50.814;6.590;2023-07-09T05:07:47;9.15;;;5.07;;
20144;SDS011;10233;50.814;6.590;2023-07-09T05:08:48;8.23;;;4.90;;
20144;SDS011;10233;50.814;6.590;2023-07-09T05:09:48;10.45;;;5.13;;
20144;SDS011;10233;50.814;6.590;2023-07-09T05:10:49;9.10;;;4.83;;
20144;SDS011;10233;50.814;6.590;2023-07-09T05:11:51;6.47;;;4.65;;
20144;SDS011;10233;50.814;6.590;2023-07-09T05:12:52;7.23;;;4.70;;
20144;SDS011;10233;50.814;6.590;2023-07-09T05:13:54;7.53;;;5.18;;
20144;SDS011;10233;50.814;6.590;2023-07-09T05:14:55;8.93;;;4.80;;
20144;SDS011;10233;50.814;6.590;2023-07-09T05:15:56;9.15;;;4.97;;
20144;SDS011;10233;50.814;6.590;2023-07-09T05:16:57;7.20;;;4.57;;
20144;SDS011;10233;50.814;6.590;2023-07-09T05:17:57;7.93;;;5.07;;
20144;SDS011;10233;50.814;6.590;2023-07-09T05:18:57;7.03;;;4.38;;
20144;SDS011;10233;50.814;6.590;2023-07-09T05:19:58;8.57;;;4.90;;
20144;SDS011;10233;50.814;6.590;2023-07-09T05:20:58;6.90;;;4.47;;
20144;SDS011;10233;50.814;6.590;2023-07-09T05:21:59;8.07;;;4.73;;
20144;SDS011;10233;50.814;6.590;2023-07-09T05:22:59;9.10;;;4.93;;
20144;SDS011;10233;50.814;6.590;2023-07-09T05:24:00;7.43;;;4.50;;
20144;SDS011;10233;50.814;6.590;2023-07-09T05:25:01;9.10;;;4.47;;
20144;SDS011;10233;50.814;6.590;2023-07-09T05:26:02;6.53;;;4.60;;
20144;SDS011;10233;50.814;6.590;2023-07-09T05:27:03;7.30;;;4.70;;
20144;SDS011;10233;50.814;6.590;2023-07-09T05:28:04;8.98;;;5.15;;
20144;SDS011;10233;50.814;6.590;2023-07-09T05:29:05;6.13;;;4.47;;
20144;SDS011;10233;50.814;6.590;2023-07-09T05:30:06;8.37;;;4.70;;
20144;SDS011;10233;50.814;6.590;2023-07-09T05:31:07;8.82;;;4.72;;
20144;SDS011;10233;50.814;6.590;2023-07-09T05:32:07;10.77;;;4.90;;
20144;SDS011;10233;50.814;6.590;2023-07-09T05:33:08;8.93;;;4.97;;
20144;SDS011;10233;50.814;6.590;2023-07-09T05:34:08;7.43;;;5.10;;
20144;SDS011;10233;50.814;6.590;2023-07-09T05:35:09;8.30;;;4.60;;
20144;SDS011;10233;50.814;6.590;2023-07-09T05:36:09;10.27;;;5.15;;
20144;SDS011;10233;50.814;6.590;2023-07-09T05:37:15;8.25;;;5.00;;
20144;SDS011;10233;50.814;6.590;2023-07-09T05:38:16;8.43;;;4.90;;
20144;SDS011;10233;50.814;6.590;2023-07-09T05:39:16;8.93;;;5.30;;
20144;SDS011;10233;50.814;6.590;2023-07-09T05:40:17;8.77;;;4.88;;
20144;SDS011;10233;50.814;6.590;2023-07-09T05:41:17;9.37;;;5.33;;
20144;SDS011;10233;50.814;6.590;2023-07-09T05:42:18;9.57;;;4.83;;
20144;SDS011;10233;50.814;6.590;2023-07-09T05:43:18;7.53;;;4.95;;
20144;SDS011;10233;50.814;6.590;2023-07-09T05:44:19;7.43;;;4.73;;
20144;SDS011;10233;50.814;6.590;2023-07-09T05:45:19;7.88;;;4.82;;
20144;SDS011;10233;50.814;6.590;2023-07-09T05:46:21;10.13;;;4.93;;
20144;SDS011;10233;50.814;6.590;2023-07-09T05:47:23;9.63;;;5.00;;
20144;SDS011;10233;50.814;6.590;2023-07-09T05:48:23;6.57;;;4.82;;
20144;SDS011;10233;50.814;6.590;2023-07-09T05:49:24;7.60;;;4.53;;
20144;SDS011;10233;50.814;6.590;2023-07-09T05:50:25;6.53;;;4.70;;
20144;SDS011;10233;50.814;6.590;2023-07-09T05:51:26;8.70;;;4.78;;
20144;SDS011;10233;50.814;6.590;2023-07-09T05:52:27;10.80;;;5.18;;
20144;SDS011;10233;50.814;6.590;2023-07-09T05:53:29;7.72;;;4.88;;
20144;SDS011;10233;50.814;6.590;2023-07-09T05:54:32;7.45;;;4.50;;
20144;SDS011;10233;50.814;6.590;2023-07-09T05:55:32;8.70;;;4.70;;
20144;SDS011;10233;50.814;6.590;2023-07-09T05:56:32;5.43;;;4.20;;
20144;SDS011;10233;50.814;6.590;2023-07-09T05:57:33;7.40;;;4.70;;
20144;SDS011;10233;50.814;6.590;2023-07-09T05:58:33;8.20;;;4.80;;
20144;SDS011;10233;50.814;6.590;2023-07-09T05:59:34;10.18;;;4.80;;
20144;SDS011;10233;50.814;6.590;2023-07-09T06:00:34;7.90;;;4.43;;
20144;SDS011;10233;50.814;6.590;2023-07-09T06:01:37;7.40;;;4.65;;
20144;SDS011;10233;50.814;6.590;2023-07-09T06:02:38;7.13;;;4.40;;
20144;SDS011;10233;50.814;6.590;2023-07-09T06:03:38;7.18;;;4.32;;
20144;SDS011;10233;50.814;6.590;2023-07-09T06:04:39;8.80;;;4.60;;
20144;SDS011;10233;50.814;6.590;2023-07-09T06:05:40;7.40;;;4.40;;
20144;SDS011;10233;50.814;6.590;2023-07-09T06:06:41;9.48;;;4.40;;
20144;SDS011;10233;50.814;6.590;2023-07-09T06:07:42;7.72;;;4.88;;
20144;SDS011;10233;50.814;6.590;2023-07-09T06:08:42;6.55;;;4.43;;
20144;SDS011;10233;50.814;6.590;2023-07-09T06:09:43;6.73;;;4.77;;
20144;SDS011;10233;50.814;6.590;2023-07-09T06:10:56;9.97;;;4.50;;
20144;SDS011;10233;50.814;6.590;2023-07-09T06:12:02;9.05;;;5.00;;
20144;SDS011;10233;50.814;6.590;2023-07-09T06:13:03;6.70;;;4.80;;
20144;SDS011;10233;50.814;6.590;2023-07-09T06:14:04;6.93;;;4.77;;